Time;durP1;ratioP1;P1;durP2;ratioP2;P2;SDS_P1;SDS_P2;PMS_P1;PMS_P2;Temp;Humidity;BMP_temperature;BMP_pressure;BME280_temperature;BME280_humidity;BME280_pressure;Samples;Min_cycle;Max_cycle;Signal;HPM_P1;HPM_P2
2023/03/10 00:01:39;;;;;;;14.20;4.80;;;;;;;8.20;80.46;97900.64;79220;1300;3018603;-62
2023/03/10 00:04:05;;;;;;;14.30;5.20;;;;;;;8.34;79.39;97891.01;79192;1298;3011934;-60
2023/03/10 00:06:34;;;;;;;16.60;7.00;;;;;;;8.38;78.94;97889.86;77942;1300;3028619;-63
2023/03/10 00:09:00;;;;;;;27.90;8.20;;;;;;;8.33;79.04;97892.49;79298;1298;3014135;-62
2023/03/10 00:11:27;;;;;;;25.60;9.10;;;;;;;8.30;78.96;97894.30;79207;1297;3012146;-61
2023/03/10 00:13:57;;;;;;;25.30;10.20;;;;;;;8.19;79.13;97894.45;78007;1301;3052615;-62
2023/03/10 00:16:25;;;;;;;36.30;12.70;;;;;;;7.90;80.64;97894.15;79253;1301;3013021;-60
2023/03/10 00:18:52;;;;;;;26.30;10.00;;;;;;;7.84;81.21;97883.98;79217;1297;3011917;-59
2023/03/10 00:21:23;;;;;;;18.10;7.50;;;;;;;7.75;81.81;97878.49;78054;1301;3049940;-60
2023/03/10 00:23:57;;;;;;;21.40;9.30;;;;;;;8.32;80.36;97870.75;77993;1300;3053965;-60
2023/03/10 00:26:26;;;;;;;26.50;10.60;;;;;;;8.38;79.63;97867.54;79218;1301;3013116;-60
2023/03/10 00:28:53;;;;;;;26.70;11.00;;;;;;;8.43;79.06;97865.39;79250;1302;3011333;-61
2023/03/10 00:31:23;;;;;;;33.30;12.20;;;;;;;8.21;80.12;97866.87;78035;1300;3068336;-60
2023/03/10 00:33:51;;;;;;;65.40;20.50;;;;;;;8.11;80.30;97865.20;79368;1299;3013742;-61
2023/03/10 00:36:25;;;;;;;67.00;20.40;;;;;;;8.03;80.65;97880.08;78013;1300;3025237;-61
2023/03/10 00:38:52;;;;;;;39.20;12.40;;;;;;;7.70;82.68;97872.77;79022;1298;3011633;-62
2023/03/10 00:41:23;;;;;;;18.30;7.60;;;;;;;7.50;83.74;97874.29;77912;1300;3055152;-61
2023/03/10 00:43:50;;;;;;;11.80;4.80;;;;;;;7.62;83.48;97876.50;79265;1301;3013057;-59
2023/03/10 00:46:20;;;;;;;11.90;6.00;;;;;;;8.27;81.67;97865.18;78734;1300;3013337;-61
2023/03/10 00:48:46;;;;;;;14.80;6.10;;;;;;;8.29;80.83;97865.61;79221;1302;3012836;-61
2023/03/10 00:51:13;;;;;;;11.70;5.40;;;;;;;8.41;80.25;97862.77;79221;1301;3011548;-60
2023/03/10 00:53:41;;;;;;;18.10;7.40;;;;;;;8.15;80.89;97865.61;77953;1312;3029436;-60
2023/03/10 00:56:19;;;;;;;19.80;7.40;;;;;;;7.89;82.23;97872.43;79302;1299;3013180;-62
2023/03/10 00:58:49;;;;;;;17.10;8.50;;;;;;;7.73;83.18;97871.52;78001;1302;3050340;-61
2023/03/10 01:01:17;;;;;;;12.60;6.80;;;;;;;7.68;83.71;97873.95;79522;1300;3013040;-63
2023/03/10 01:03:45;;;;;;;17.70;6.10;;;;;;;7.64;84.01;97883.19;78059;1301;3026228;-60
2023/03/10 01:06:12;;;;;;;15.50;5.20;;;;;;;8.08;83.40;97877.50;79223;1301;3014249;-61
2023/03/10 01:08:40;;;;;;;17.50;7.40;;;;;;;8.38;81.64;97876.02;79279;1301;3011442;-59
2023/03/10 01:11:09;;;;;;;12.10;6.00;;;;;;;8.21;81.59;97874.56;78003;1301;3049609;-59
2023/03/10 01:13:36;;;;;;;30.10;11.70;;;;;;;7.98;82.66;97889.23;79366;1296;3011918;-60
2023/03/10 01:16:04;;;;;;;26.60;10.50;;;;;;;7.75;83.93;97879.08;79165;1297;3011872;-60
2023/03/10 01:18:32;;;;;;;26.70;8.70;;;;;;;7.67;84.24;97882.60;78087;1301;3053898;-61
2023/03/10 01:20:59;;;;;;;35.00;11.50;;;;;;;7.51;85.11;97880.28;79216;1301;3013656;-61
2023/03/10 01:23:26;;;;;;;22.60;8.20;;;;;;;7.53;85.48;97887.84;79264;1301;3011618;-62
2023/03/10 01:25:54;;;;;;;18.00;6.50;;;;;;;7.91;85.07;97893.86;78066;1301;3027922;-62
2023/03/10 01:28:21;;;;;;;14.40;6.10;;;;;;;8.22;83.27;97892.15;79294;1299;3013340;-61
2023/03/10 01:30:47;;;;;;;15.80;6.20;;;;;;;8.39;82.07;97889.48;79238;1297;3013083;-60
2023/03/10 01:33:16;;;;;;;14.60;5.40;;;;;;;8.07;82.95;97894.63;78049;1301;3052052;-61
2023/03/10 01:35:43;;;;;;;12.20;5.30;;;;;;;8.00;83.02;97898.65;79233;1301;3013702;-60
2023/03/10 01:38:12;;;;;;;13.60;6.00;;;;;;;7.73;84.15;97902.56;79228;1298;3011801;-60
2023/03/10 01:40:45;;;;;;;15.10;6.70;;;;;;;7.53;85.10;97905.55;78056;1300;3049634;-60
2023/03/10 01:43:18;;;;;;;9.50;3.80;;;;;;;7.42;86.40;97902.74;79185;1296;3011572;-60
2023/03/10 01:45:46;;;;;;;8.30;4.60;;;;;;;7.87;85.17;97906.41;78206;1301;3051187;-61
2023/03/10 01:48:14;;;;;;;11.30;4.80;;;;;;;8.05;84.38;97902.98;79372;1298;3018523;-62
2023/03/10 01:50:42;;;;;;;11.50;5.60;;;;;;;8.06;84.01;97909.20;79205;1301;3013426;-60
2023/03/10 01:53:10;;;;;;;11.80;5.50;;;;;;;7.97;83.89;97902.71;77997;1301;3052421;-60
2023/03/10 01:55:40;;;;;;;12.70;5.10;;;;;;;7.68;85.01;97906.56;79204;1296;3013132;-60
2023/03/10 01:58:08;;;;;;;9.20;5.40;;;;;;;7.54;85.97;97908.98;77987;1301;3054333;-61
2023/03/10 02:00:35;;;;;;;12.90;5.90;;;;;;;7.56;85.78;97905.52;79225;1302;3018553;-62
2023/03/10 02:03:17;;;;;;;8.60;3.70;;;;;;;7.38;86.37;97907.92;79235;1301;3011694;-62
2023/03/10 02:05:48;;;;;;;12.00;4.80;;;;;;;7.82;86.32;97912.38;78035;1301;3069542;-60
2023/03/10 02:08:16;;;;;;;12.40;5.30;;;;;;;8.08;84.56;97910.45;79294;1301;3011820;-60
2023/03/10 02:10:45;;;;;;;11.30;5.10;;;;;;;8.10;83.81;97909.59;77960;1303;3057111;-60
2023/03/10 02:13:12;;;;;;;11.90;5.60;;;;;;;7.93;84.23;97913.77;79247;1295;3012960;-60
2023/03/10 02:15:44;;;;;;;12.60;5.50;;;;;;;7.68;85.39;97909.89;78790;1295;3013588;-61
2023/03/10 02:18:12;;;;;;;14.30;6.60;;;;;;;7.37;87.02;97913.73;79318;1301;3013145;-61
2023/03/10 02:20:42;;;;;;;16.10;6.90;;;;;;;7.22;87.80;97914.77;79292;1299;3011391;-60
2023/03/10 02:23:14;;;;;;;7.90;4.00;;;;;;;7.20;88.58;97913.19;78045;1300;3069281;-61
2023/03/10 02:25:44;;;;;;;17.80;5.50;;;;;;;7.65;87.81;97911.87;79231;1301;3011890;-59
2023/03/10 02:28:16;;;;;;;11.50;4.50;;;;;;;7.91;85.60;97906.97;78065;1300;3057829;-60
2023/03/10 02:30:47;;;;;;;13.10;5.90;;;;;;;7.90;85.39;97916.48;79177;1295;3013592;-61
2023/03/10 02:33:19;;;;;;;14.00;6.40;;;;;;;7.53;87.05;97919.19;78022;1301;3027699;-61
2023/03/10 02:35:45;;;;;;;12.00;5.40;;;;;;;7.52;87.07;97917.16;79283;1300;3013071;-61
2023/03/10 02:38:16;;;;;;;14.90;6.00;;;;;;;7.33;87.66;97918.88;78038;1297;3054215;-61
2023/03/10 02:40:49;;;;;;;15.00;5.10;;;;;;;7.16;88.60;97926.50;79300;1301;3013321;-62
2023/03/10 02:43:29;;;;;;;12.50;5.60;;;;;;;7.40;88.85;97920.98;78041;1300;3052784;-61
2023/03/10 02:46:17;;;;;;;14.50;5.60;;;;;;;7.71;86.85;97924.86;78017;1301;3058114;-60
2023/03/10 02:48:44;;;;;;;14.10;5.20;;;;;;;7.64;86.78;97928.49;79289;1295;3013644;-62
2023/03/10 02:51:23;;;;;;;14.60;6.50;;;;;;;7.25;88.31;97940.15;78002;1301;3050556;-61
2023/03/10 02:53:53;;;;;;;14.10;6.90;;;;;;;7.32;88.46;97938.44;78743;1301;3011913;-60
2023/03/10 02:56:20;;;;;;;13.90;7.20;;;;;;;7.08;89.79;97938.75;79237;1295;3013008;-60
2023/03/10 02:58:48;;;;;;;12.60;5.80;;;;;;;6.93;90.54;97936.83;79231;1301;3012577;-60
2023/03/10 03:01:17;;;;;;;10.70;5.00;;;;;;;7.20;90.38;97938.98;78001;1301;3052423;-61
2023/03/10 03:03:44;;;;;;;13.40;5.00;;;;;;;7.60;88.36;97938.70;79357;1301;3013410;-60
2023/03/10 03:06:11;;;;;;;11.70;6.20;;;;;;;7.80;86.92;97937.94;79249;1300;3011516;-61
2023/03/10 03:08:40;;;;;;;18.00;7.10;;;;;;;7.38;87.57;97941.19;78042;1300;3029675;-61
2023/03/10 03:11:08;;;;;;;18.80;6.40;;;;;;;7.27;88.61;97939.86;79271;1299;3013147;-65
2023/03/10 03:13:34;;;;;;;15.90;6.20;;;;;;;7.00;90.03;97938.98;79255;1301;3011923;-62
2023/03/10 03:16:05;;;;;;;8.40;4.70;;;;;;;6.89;90.98;97943.69;77990;1301;3052110;-61
2023/03/10 03:18:34;;;;;;;10.90;4.60;;;;;;;7.43;89.65;97940.83;79306;1301;3011666;-61
2023/03/10 03:21:04;;;;;;;13.20;6.30;;;;;;;7.69;87.24;97945.54;78035;1301;3028270;-61
2023/03/10 03:23:34;;;;;;;12.60;5.90;;;;;;;7.51;87.43;97942.48;79208;1301;3012899;-60
2023/03/10 03:26:03;;;;;;;11.80;5.90;;;;;;;7.48;87.03;97945.48;77955;1301;3051436;-60
2023/03/10 03:28:31;;;;;;;16.40;6.10;;;;;;;7.33;88.09;97942.02;79312;1301;3013204;-60
2023/03/10 03:30:58;;;;;;;18.10;7.00;;;;;;;6.97;89.39;97947.70;79255;1298;3011973;-61
2023/03/10 03:33:26;;;;;;;10.80;4.60;;;;;;;6.80;91.08;97942.13;77998;1299;3049994;-59
2023/03/10 03:35:53;;;;;;;9.30;4.90;;;;;;;7.23;90.53;97944.68;79239;1298;3018787;-60
2023/03/10 03:38:20;;;;;;;12.50;5.20;;;;;;;7.57;88.33;97937.55;79167;1301;3011573;-60
2023/03/10 03:40:47;;;;;;;13.20;5.70;;;;;;;7.61;87.33;97936.89;78037;1301;3029690;-60
2023/03/10 03:43:15;;;;;;;11.70;5.90;;;;;;;7.38;87.67;97943.96;79227;1297;3013221;-61
2023/03/10 03:45:46;;;;;;;22.90;7.90;;;;;;;7.17;89.22;97940.71;78757;1298;3013578;-59
2023/03/10 03:48:13;;;;;;;19.60;7.30;;;;;;;6.88;90.64;97947.66;79221;1297;3013587;-61
2023/03/10 03:50:40;;;;;;;13.20;4.80;;;;;;;6.91;91.11;97952.45;79213;1300;3011507;-62
2023/03/10 03:53:15;;;;;;;11.10;4.60;;;;;;;7.39;89.83;97949.48;77960;1301;3050193;-61
2023/03/10 03:55:43;;;;;;;11.40;6.00;;;;;;;7.72;87.60;97956.67;79235;1298;3013494;-62
2023/03/10 03:58:10;;;;;;;21.20;7.60;;;;;;;7.50;87.38;97956.71;79251;1299;3011917;-60
2023/03/10 04:00:39;;;;;;;14.10;7.90;;;;;;;7.43;87.64;97957.17;77979;1312;3052571;-60
2023/03/10 04:03:06;;;;;;;13.90;6.50;;;;;;;7.30;87.99;97960.19;79248;1301;3013940;-61
2023/03/10 04:05:33;;;;;;;12.10;6.40;;;;;;;7.06;89.06;97961.88;79244;1296;3011603;-61
2023/03/10 04:08:04;;;;;;;13.20;5.10;;;;;;;6.95;89.44;97963.20;78003;1301;3048925;-63
2023/03/10 04:10:31;;;;;;;12.60;4.70;;;;;;;7.26;89.79;97961.53;79334;1299;3013891;-60
2023/03/10 04:13:01;;;;;;;12.00;5.70;;;;;;;7.74;87.38;97963.10;78744;1301;3011926;-59
2023/03/10 04:15:29;;;;;;;14.20;6.70;;;;;;;7.67;86.14;97965.56;79331;1301;3013211;-62
2023/03/10 04:17:57;;;;;;;11.60;5.70;;;;;;;7.37;87.72;97962.49;79366;1297;3011615;-59
2023/03/10 04:20:25;;;;;;;14.40;5.70;;;;;;;7.11;88.71;97968.70;78159;1301;3052552;-59
2023/03/10 04:22:52;;;;;;;11.40;5.80;;;;;;;6.91;90.08;97972.27;79434;1298;3013590;-61
2023/03/10 04:25:23;;;;;;;9.30;3.90;;;;;;;6.94;90.47;97985.34;78239;1301;3053344;-61
2023/03/10 04:27:51;;;;;;;10.40;5.00;;;;;;;7.35;89.02;97981.10;79446;1301;3013575;-60
2023/03/10 04:30:19;;;;;;;13.80;5.30;;;;;;;7.70;87.44;97977.23;79399;1300;3011757;-61
2023/03/10 04:32:49;;;;;;;15.10;5.60;;;;;;;7.65;87.00;97979.61;78099;1300;3069255;-59
2023/03/10 04:35:17;;;;;;;12.80;5.80;;;;;;;7.33;87.89;97990.25;79249;1300;3013562;-60
2023/03/10 04:37:48;;;;;;;15.70;6.10;;;;;;;7.16;88.92;97985.92;77912;1301;3050413;-62
2023/03/10 04:40:15;;;;;;;15.50;6.20;;;;;;;7.05;89.54;97987.20;79379;1298;3014704;-61
2023/03/10 04:42:42;;;;;;;10.80;4.80;;;;;;;6.92;90.31;97994.88;79329;1299;3011565;-63
2023/03/10 04:45:10;;;;;;;9.30;4.10;;;;;;;7.23;90.35;97988.71;78042;1301;3054629;-60
2023/03/10 04:47:37;;;;;;;11.50;5.60;;;;;;;7.71;87.65;97984.95;79221;1297;3013146;-63
2023/03/10 04:50:06;;;;;;;12.30;5.60;;;;;;;7.69;86.69;97989.11;79138;1296;3011635;-60
2023/03/10 04:52:34;;;;;;;17.60;5.70;;;;;;;7.34;88.37;97994.73;77992;1301;3050910;-60
2023/03/10 04:55:01;;;;;;;14.20;6.20;;;;;;;7.33;88.58;97995.35;79220;1301;3018543;-62
2023/03/10 04:57:28;;;;;;;14.60;7.20;;;;;;;7.25;88.82;98003.52;79165;1298;3013092;-62
2023/03/10 04:59:56;;;;;;;11.00;4.10;;;;;;;7.11;89.21;98017.73;77976;1301;3030201;-59
2023/03/10 05:02:24;;;;;;;10.30;4.70;;;;;;;7.46;89.03;98002.98;79263;1299;3012841;-65
2023/03/10 05:04:55;;;;;;;9.90;4.70;;;;;;;7.95;86.22;98007.27;78764;1298;3013210;-61
2023/03/10 05:07:22;;;;;;;12.30;5.60;;;;;;;7.89;85.50;98004.93;79355;1299;3014845;-62
2023/03/10 05:09:53;;;;;;;14.10;5.10;;;;;;;7.67;85.83;98009.13;81438;1296;3011086;-61
2023/03/10 05:12:20;;;;;;;16.70;6.40;;;;;;;7.38;87.30;98008.23;81988;1297;3012611;-62
2023/03/10 05:14:49;;;;;;;15.00;6.00;;;;;;;7.15;88.60;98005.79;81975;1297;3011159;-60
2023/03/10 05:17:17;;;;;;;16.20;5.90;;;;;;;7.07;89.66;97999.06;80701;1301;3052516;-61
2023/03/10 05:19:44;;;;;;;8.70;4.10;;;;;;;6.92;90.07;98012.12;82025;1295;3012622;-63
2023/03/10 05:22:17;;;;;;;11.90;4.10;;;;;;;7.35;89.38;98006.67;80637;1295;3057287;-61
2023/03/10 05:24:44;;;;;;;14.00;5.00;;;;;;;7.84;86.49;98008.80;81945;1296;3013154;-62
2023/03/10 05:27:13;;;;;;;11.60;5.10;;;;;;;7.76;85.89;98013.93;81915;1298;3011610;-61
2023/03/10 05:29:43;;;;;;;11.70;5.60;;;;;;;7.65;86.24;98021.64;80709;1297;3051795;-61
2023/03/10 05:32:14;;;;;;;16.20;6.10;;;;;;;7.61;86.39;98022.45;81945;1298;3011313;-61
2023/03/10 05:34:47;;;;;;;12.70;5.40;;;;;;;7.32;87.50;98027.96;80664;1297;3068093;-62
2023/03/10 05:37:14;;;;;;;20.30;7.00;;;;;;;7.13;88.30;98035.94;81959;1295;3012909;-62
2023/03/10 05:39:42;;;;;;;10.60;5.00;;;;;;;7.01;89.54;98037.62;81916;1295;3010912;-61
2023/03/10 05:42:11;;;;;;;17.10;5.90;;;;;;;7.50;88.03;98035.92;80652;1297;3051834;-62
2023/03/10 05:44:38;;;;;;;14.80;5.40;;;;;;;8.29;84.94;98037.61;81954;1297;3012924;-61
2023/03/10 05:47:12;;;;;;;11.60;5.20;;;;;;;8.25;83.44;98036.66;81422;1298;3012763;-61
2023/03/10 05:49:39;;;;;;;12.00;5.30;;;;;;;8.00;83.80;98046.34;81952;1298;3012670;-62
2023/03/10 05:52:06;;;;;;;17.30;6.30;;;;;;;7.89;84.23;98062.29;81945;1297;3011252;-62
2023/03/10 05:54:35;;;;;;;11.80;7.10;;;;;;;7.64;85.09;98063.73;80686;1295;3055134;-61
2023/03/10 05:57:02;;;;;;;14.40;6.50;;;;;;;7.58;85.29;98061.55;82029;1295;3011021;-58
2023/03/10 05:59:29;;;;;;;17.00;6.10;;;;;;;7.58;84.76;98065.33;81925;1295;3011010;-60
2023/03/10 06:01:57;;;;;;;17.10;6.00;;;;;;;8.26;83.61;98062.95;80668;1301;3027021;-60
2023/03/10 06:04:27;;;;;;;15.90;6.70;;;;;;;8.47;81.76;98069.57;82008;1295;3018086;-61
2023/03/10 06:06:59;;;;;;;18.90;7.40;;;;;;;8.46;81.71;98068.11;81466;1295;3011472;-61
2023/03/10 06:09:27;;;;;;;18.40;7.10;;;;;;;8.32;81.17;98068.60;81998;1295;3011407;-61
2023/03/10 06:11:59;;;;;;;16.20;6.80;;;;;;;8.20;81.35;98065.82;80701;1295;3056756;-60
2023/03/10 06:14:26;;;;;;;18.00;7.90;;;;;;;7.88;82.93;98071.94;82012;1296;3012763;-64
2023/03/10 06:16:53;;;;;;;14.10;6.30;;;;;;;7.80;83.67;98078.27;80436;1296;3038897;-61
2023/03/10 06:19:27;;;;;;;13.80;5.00;;;;;;;8.05;82.01;98090.25;80698;1298;3051157;-59
2023/03/10 06:21:53;;;;;;;14.00;5.00;;;;;;;8.57;81.54;98095.79;81979;1295;3013062;-62
2023/03/10 06:24:20;;;;;;;13.50;6.20;;;;;;;9.30;78.23;98099.18;81986;1295;3011341;-60
2023/03/10 06:26:49;;;;;;;15.10;7.10;;;;;;;9.29;77.65;98101.03;80747;1295;3055697;-60
2023/03/10 06:29:16;;;;;;;19.50;8.40;;;;;;;8.96;77.95;98104.53;81993;1295;3012526;-61
2023/03/10 06:31:48;;;;;;;14.40;7.90;;;;;;;8.85;78.33;98104.17;81407;1298;3011114;-62
2023/03/10 06:34:14;;;;;;;17.90;8.00;;;;;;;8.84;78.21;98114.02;81948;1295;3012675;-61
2023/03/10 06:36:41;;;;;;;15.20;8.80;;;;;;;8.52;79.13;98112.52;81984;1297;3011353;-61
2023/03/10 06:39:09;;;;;;;21.10;8.80;;;;;;;8.37;79.97;98120.23;80702;1298;3027178;-60
2023/03/10 06:41:35;;;;;;;24.20;9.80;;;;;;;8.39;79.99;98118.54;81969;1296;3012523;-60
2023/03/10 06:44:02;;;;;;;12.40;5.50;;;;;;;8.42;80.38;98117.10;82002;1295;3011967;-59
2023/03/10 06:46:30;;;;;;;11.10;5.00;;;;;;;9.09;78.74;98118.71;80706;1296;3025900;-61
2023/03/10 06:48:57;;;;;;;14.50;5.40;;;;;;;9.62;77.14;98125.54;81990;1296;3012476;-60
2023/03/10 06:51:23;;;;;;;15.10;6.10;;;;;;;9.75;75.91;98121.60;81964;1297;3011299;-61
2023/03/10 06:53:53;;;;;;;17.80;8.00;;;;;;;9.69;75.73;98121.20;80700;1296;3068538;-60
2023/03/10 06:56:20;;;;;;;22.50;9.00;;;;;;;9.70;75.84;98123.92;82001;1295;3013290;-62
2023/03/10 06:58:51;;;;;;;18.70;8.40;;;;;;;9.58;75.80;98123.77;81386;1295;3010892;-62
2023/03/10 07:01:28;;;;;;;16.60;7.70;;;;;;;9.67;75.81;98129.52;81995;1295;3018737;-62
2023/03/10 07:03:56;;;;;;;20.60;9.00;;;;;;;9.65;75.70;98131.95;80718;1296;3048784;-63
2023/03/10 07:06:23;;;;;;;19.00;8.50;;;;;;;9.72;75.39;98136.63;81964;1297;3018391;-72
2023/03/10 07:09:10;;;;;;;17.40;9.10;;;;;;;9.80;75.71;98137.65;80661;1295;3071644;-65
2023/03/10 07:11:37;;;;;;;19.60;9.40;;;;;;;9.98;74.98;98135.91;81981;1295;3012663;-62
2023/03/10 07:14:05;;;;;;;17.10;6.40;;;;;;;10.13;74.45;98129.98;81971;1295;3011433;-61
2023/03/10 07:16:34;;;;;;;15.20;6.90;;;;;;;10.86;72.65;98138.81;80704;1296;3053808;-62
2023/03/10 07:19:00;;;;;;;15.60;7.10;;;;;;;11.50;69.28;98138.11;81952;1300;3012333;-64
2023/03/10 07:21:28;;;;;;;17.80;8.00;;;;;;;11.76;68.07;98138.06;81985;1298;3011154;-64
2023/03/10 07:23:56;;;;;;;19.30;9.20;;;;;;;11.81;67.50;98137.79;80706;1295;3025980;-63
2023/03/10 07:26:23;;;;;;;19.20;8.60;;;;;;;11.75;67.34;98136.86;81968;1295;3012852;-62
2023/03/10 07:28:51;;;;;;;16.10;8.20;;;;;;;11.74;67.35;98137.48;81972;1295;3011322;-63
2023/03/10 07:31:19;;;;;;;16.70;8.50;;;;;;;11.66;66.80;98137.61;80723;1298;3052541;-63
2023/03/10 07:33:48;;;;;;;16.70;8.40;;;;;;;11.60;66.66;98137.98;81982;1295;3011207;-62
2023/03/10 07:36:18;;;;;;;14.00;7.70;;;;;;;11.64;66.91;98135.55;80720;1295;3026751;-63
2023/03/10 07:40:21;;;;;;;12.20;7.40;;;;;;;11.79;66.28;98140.23;80036;1304;3012916;-62
2023/03/10 07:42:47;;;;;;;13.60;7.80;;;;;;;11.76;65.59;98147.91;78860;1302;3012719;-63
2023/03/10 07:45:16;;;;;;;19.10;8.60;;;;;;;11.69;65.57;98157.73;77769;1304;3027407;-63
2023/03/10 07:47:43;;;;;;;17.50;8.60;;;;;;;11.53;66.06;98164.20;79069;1304;3018611;-61
2023/03/10 07:50:10;;;;;;;18.20;8.70;;;;;;;11.43;66.04;98162.94;78941;1304;3011563;-63
2023/03/10 07:52:38;;;;;;;19.50;9.30;;;;;;;11.30;66.70;98167.38;75635;1304;3050089;-63
2023/03/10 07:55:09;;;;;;;14.70;8.00;;;;;;;11.21;66.72;98170.40;79152;1301;3011851;-60
2023/03/10 07:57:37;;;;;;;16.70;7.00;;;;;;;11.30;66.64;98174.44;78166;1300;3049941;-63
2023/03/10 08:00:05;;;;;;;14.30;7.50;;;;;;;11.30;66.47;98166.14;79355;1299;3013647;-62
2023/03/10 08:02:42;;;;;;;14.30;6.80;;;;;;;11.48;66.43;98165.35;78165;1300;3052915;-62
2023/03/10 08:05:09;;;;;;;14.80;7.10;;;;;;;11.42;66.00;98179.91;79324;1300;3013370;-63
2023/03/10 08:07:42;;;;;;;14.10;5.70;;;;;;;11.36;66.14;98179.09;78304;1298;3051575;-61
2023/03/10 08:10:10;;;;;;;9.90;5.60;;;;;;;11.37;66.23;98180.68;79359;1296;3013577;-63
2023/03/10 08:12:37;;;;;;;7.90;4.50;;;;;;;11.49;65.85;98188.55;79230;1295;3011935;-65
2023/03/10 08:15:10;;;;;;;12.60;5.10;;;;;;;11.53;65.72;98186.86;78164;1300;3050921;-62
2023/03/10 08:17:37;;;;;;;9.70;4.10;;;;;;;11.67;65.38;98193.52;79230;1301;3012224;-62
2023/03/10 08:20:06;;;;;;;7.30;4.50;;;;;;;11.69;65.25;98198.98;77954;1301;3052432;-63
2023/03/10 08:22:33;;;;;;;10.60;4.30;;;;;;;11.70;65.00;98209.92;79367;1301;3013282;-61
2023/03/10 08:25:00;;;;;;;7.30;4.00;;;;;;;11.67;65.03;98207.94;79194;1301;3013067;-63
2023/03/10 08:27:29;;;;;;;8.60;5.00;;;;;;;11.75;64.85;98211.63;78091;1300;3049208;-64
2023/03/10 08:29:56;;;;;;;7.80;5.20;;;;;;;11.87;64.30;98209.53;79510;1297;3013661;-63
2023/03/10 08:32:23;;;;;;;11.90;6.00;;;;;;;11.86;64.46;98214.87;79254;1295;3013138;-63
2023/03/10 08:34:51;;;;;;;12.70;6.70;;;;;;;11.67;64.91;98219.44;78171;1301;3052643;-62
2023/03/10 08:37:19;;;;;;;13.00;6.50;;;;;;;11.62;65.12;98222.92;79225;1296;3011835;-63
2023/03/10 08:39:46;;;;;;;13.70;6.60;;;;;;;11.70;65.01;98220.81;79289;1295;3011533;-60
2023/03/10 08:42:14;;;;;;;12.70;6.70;;;;;;;11.86;64.54;98219.95;78114;1300;3048966;-61
2023/03/10 08:44:41;;;;;;;15.20;6.90;;;;;;;12.15;63.66;98223.35;79353;1300;3013597;-63
2023/03/10 08:47:08;;;;;;;13.90;7.60;;;;;;;12.17;63.08;98228.04;79279;1299;3011589;-61
2023/03/10 08:49:36;;;;;;;14.90;8.40;;;;;;;12.08;63.07;98233.75;78007;1301;3053673;-63
2023/03/10 08:52:03;;;;;;;16.50;10.20;;;;;;;12.05;63.11;98232.63;79386;1301;3015647;-64
2023/03/10 08:54:30;;;;;;;17.00;9.50;;;;;;;12.03;63.40;98235.42;79247;1298;3013479;-63
2023/03/10 08:56:58;;;;;;;18.40;10.20;;;;;;;12.00;63.35;98233.36;79128;1301;3048649;-61
2023/03/10 08:59:25;;;;;;;16.50;9.40;;;;;;;11.89;63.48;98239.73;79357;1299;3013480;-61
2023/03/10 09:01:52;;;;;;;15.50;9.80;;;;;;;11.70;63.99;98244.30;79303;1300;3011878;-64
2023/03/10 09:04:20;;;;;;;14.30;8.70;;;;;;;11.72;64.20;98251.55;78027;1301;3053890;-61
2023/03/10 09:06:47;;;;;;;15.20;9.40;;;;;;;11.88;63.71;98257.19;79520;1301;3013240;-62
2023/03/10 09:09:13;;;;;;;16.20;10.00;;;;;;;11.71;64.07;98258.26;79333;1301;3013022;-62
2023/03/10 09:11:42;;;;;;;12.10;9.10;;;;;;;11.61;64.46;98265.60;79189;1305;3026360;-61
2023/03/10 09:14:09;;;;;;;17.40;9.10;;;;;;;11.54;64.59;98260.27;79304;1299;3013487;-60
2023/03/10 09:16:38;;;;;;;15.80;9.00;;;;;;;11.42;65.26;98260.14;79371;1298;3011405;-62
2023/03/10 09:19:06;;;;;;;11.10;8.40;;;;;;;11.59;64.64;98267.00;78018;1301;3053097;-63
2023/03/10 09:21:33;;;;;;;13.90;7.50;;;;;;;11.79;64.38;98275.64;79152;1301;3013607;-62
2023/03/10 09:24:02;;;;;;;10.00;6.40;;;;;;;11.92;63.80;98277.57;79248;1301;3011994;-60
2023/03/10 09:26:30;;;;;;;8.30;5.70;;;;;;;11.68;64.30;98271.48;78004;1301;3050018;-63
2023/03/10 09:28:57;;;;;;;12.90;6.80;;;;;;;11.53;64.59;98281.02;79328;1298;3013138;-61
2023/03/10 09:31:30;;;;;;;9.70;6.70;;;;;;;11.33;65.04;98286.52;79523;1301;3011914;-63
2023/03/10 09:33:59;;;;;;;13.90;8.30;;;;;;;11.14;65.52;98288.25;78187;1301;3053452;-64
2023/03/10 09:36:31;;;;;;;;;;;;;;;11.05;65.76;98289.65;79311;1299;3011853;-62
2023/03/10 09:38:59;;;;;;;14.30;8.80;;;;;;;10.78;66.46;98296.70;78068;1302;3050931;-63
2023/03/10 09:42:20;;;;;;;12.90;7.60;;;;;;;10.87;66.30;98293.58;79383;1301;3018760;-64
2023/03/10 09:45:16;;;;;;;11.40;7.90;;;;;;;11.04;65.61;98291.63;78380;1301;3056461;-63
2023/03/10 09:47:55;;;;;;;10.60;7.50;;;;;;;10.97;65.71;98290.84;78192;1301;3050344;-63
2023/03/10 09:50:31;;;;;;;11.40;6.70;;;;;;;11.05;65.41;98286.63;78131;1301;3053232;-64
2023/03/10 09:53:10;;;;;;;10.00;7.30;;;;;;;11.16;64.48;98293.13;78067;1301;3053341;-64
2023/03/10 09:55:39;;;;;;;9.70;6.60;;;;;;;11.13;64.06;98288.13;78121;1309;3069978;-63
2023/03/10 09:58:16;;;;;;;10.00;6.70;;;;;;;11.03;63.81;98291.59;79365;1296;3012847;-63
2023/03/10 10:00:45;;;;;;;9.90;6.40;;;;;;;10.94;63.62;98298.04;78186;1301;3057842;-64
2023/03/10 10:03:22;;;;;;;9.10;5.70;;;;;;;11.02;63.42;98305.09;79310;1296;3013499;-62
2023/03/10 10:05:52;;;;;;;8.20;6.20;;;;;;;11.32;62.45;98298.01;78002;1300;3050145;-62
2023/03/10 10:08:26;;;;;;;8.80;5.90;;;;;;;11.51;61.69;98293.41;79306;1302;3013257;-65
2023/03/10 10:10:56;;;;;;;11.70;6.30;;;;;;;11.69;61.13;98297.59;78089;1301;3067680;-66
2023/03/10 10:13:25;;;;;;;13.00;7.10;;;;;;;11.47;61.27;98297.80;79461;1301;3013421;-67
2023/03/10 10:16:30;;;;;;;8.60;6.80;;;;;;;11.60;61.16;98291.99;78488;1301;3026569;-67
2023/03/10 10:19:05;;;;;;;10.60;6.50;;;;;;;11.99;59.85;98287.02;78099;1296;3049556;-68
2023/03/10 10:21:49;;;;;;;9.80;7.00;;;;;;;12.19;59.53;98299.45;78019;1298;3054031;-69
2023/03/10 10:24:17;;;;;;;10.20;6.80;;;;;;;12.27;58.82;98293.08;78231;1301;3049558;-72
2023/03/10 10:26:46;;;;;;;9.10;6.10;;;;;;;12.26;58.54;98295.20;79366;1302;3011820;-68
2023/03/10 10:29:21;;;;;;;7.90;6.20;;;;;;;12.25;58.71;98295.65;79061;1298;3011907;-72
2023/03/10 10:32:24;;;;;;;9.20;5.40;;;;;;;12.12;58.58;98297.29;79731;1301;3011782;-72
2023/03/10 10:34:52;;;;;;;9.80;6.20;;;;;;;12.20;58.34;98295.77;77789;1307;3051128;-70
2023/03/10 10:37:25;;;;;;;12.00;7.30;;;;;;;12.22;57.89;98305.89;79260;1301;3018893;-71
2023/03/10 10:39:54;;;;;;;9.90;6.40;;;;;;;12.03;57.86;98302.23;78110;1301;3054423;-68
2023/03/10 10:42:27;;;;;;;9.50;5.80;;;;;;;12.19;57.82;98299.86;79434;1308;3013510;-69
2023/03/10 10:45:19;;;;;;;7.60;5.10;;;;;;;12.18;57.90;98299.39;78146;1300;3051466;-68
2023/03/10 10:47:50;;;;;;;7.20;5.30;;;;;;;12.33;57.94;98297.45;78201;1301;3069671;-68
2023/03/10 10:50:26;;;;;;;10.80;5.60;;;;;;;12.41;57.42;98300.95;79456;1299;3011788;-71
2023/03/10 10:53:14;;;;;;;11.50;5.70;;;;;;;12.47;57.11;98299.20;78191;1301;3057238;-65
2023/03/10 10:55:42;;;;;;;10.30;6.10;;;;;;;12.77;56.35;98298.19;78232;1301;3050253;-69
2023/03/10 10:58:28;;;;;;;8.40;5.60;;;;;;;12.96;55.43;98301.99;79568;1300;3013801;-70
2023/03/10 11:00:59;;;;;;;10.60;5.70;;;;;;;12.72;56.34;98315.63;78193;1301;3053276;-65
2023/03/10 11:03:35;;;;;;;7.60;4.40;;;;;;;12.25;57.36;98316.35;79472;1308;3011882;-66
2023/03/10 11:06:28;;;;;;;7.90;4.90;;;;;;;11.91;58.53;98314.81;78283;1307;3069701;-69
2023/03/10 11:09:12;;;;;;;8.20;5.10;;;;;;;12.09;58.24;98308.45;78209;1301;3051739;-67
2023/03/10 11:11:55;;;;;;;8.60;5.20;;;;;;;11.81;58.91;98304.29;78306;1298;3056786;-68
2023/03/10 11:14:52;;;;;;;10.90;6.00;;;;;;;11.70;59.18;98302.06;78312;1298;3049653;-67
2023/03/10 11:17:28;;;;;;;8.60;5.80;;;;;;;11.69;59.17;98299.86;78324;1296;3054130;-69
2023/03/10 11:20:12;;;;;;;9.10;6.40;;;;;;;11.87;58.65;98300.23;78366;1298;3050908;-65
2023/03/10 11:22:52;;;;;;;11.90;6.40;;;;;;;12.06;58.08;98298.84;78214;1299;3052633;-72
2023/03/10 11:25:43;;;;;;;9.20;6.10;;;;;;;12.09;57.57;98303.04;78275;1301;3052567;-69
2023/03/10 11:28:17;;;;;;;10.50;5.40;;;;;;;12.41;56.98;98302.76;78094;1295;3069315;-65
2023/03/10 11:31:27;;;;;;;12.00;5.90;;;;;;;12.41;56.33;98303.28;78383;1298;3051294;-65